sensor_id;sensor_type;location;lat;lon;timestamp;P1;durP1;ratioP1;P2;durP2;ratioP2
23222;SDS011;11780;13.904;100.620;2024-02-28T00:00:39;29.93;;;23.57;;
23222;SDS011;11780;13.904;100.620;2024-02-28T00:03:10;30.27;;;23.67;;
23222;SDS011;11780;13.904;100.620;2024-02-28T00:05:41;33.70;;;25.73;;
23222;SDS011;11780;13.904;100.620;2024-02-28T00:08:13;36.20;;;25.33;;
23222;SDS011;11780;13.904;100.620;2024-02-28T00:10:44;31.10;;;24.95;;
23222;SDS011;11780;13.904;100.620;2024-02-28T00:13:15;41.03;;;25.98;;
23222;SDS011;11780;13.904;100.620;2024-02-28T00:15:46;32.85;;;26.13;;
23222;SDS011;11780;13.904;100.620;2024-02-28T00:18:17;31.75;;;23.92;;
23222;SDS011;11780;13.904;100.620;2024-02-28T00:23:22;31.35;;;25.38;;
23222;SDS011;11780;13.904;100.620;2024-02-28T00:25:53;31.52;;;25.73;;
23222;SDS011;11780;13.904;100.620;2024-02-28T00:28:24;30.65;;;25.38;;
23222;SDS011;11780;13.904;100.620;2024-02-28T00:30:54;34.40;;;25.73;;
23222;SDS011;11780;13.904;100.620;2024-02-28T00:33:25;33.20;;;25.65;;
23222;SDS011;11780;13.904;100.620;2024-02-28T00:35:56;30.42;;;25.52;;
23222;SDS011;11780;13.904;100.620;2024-02-28T00:38:27;32.13;;;26.27;;
23222;SDS011;11780;13.904;100.620;2024-02-28T00:40:58;32.53;;;25.80;;
23222;SDS011;11780;13.904;100.620;2024-02-28T00:43:30;31.33;;;25.20;;
23222;SDS011;11780;13.904;100.620;2024-02-28T00:46:01;29.47;;;25.70;;
23222;SDS011;11780;13.904;100.620;2024-02-28T00:48:33;34.50;;;25.90;;
23222;SDS011;11780;13.904;100.620;2024-02-28T00:51:04;32.42;;;23.85;;
23222;SDS011;11780;13.904;100.620;2024-02-28T00:56:05;32.75;;;23.70;;
23222;SDS011;11780;13.904;100.620;2024-02-28T00:58:36;30.27;;;24.48;;
23222;SDS011;11780;13.904;100.620;2024-02-28T01:01:08;28.77;;;23.77;;
23222;SDS011;11780;13.904;100.620;2024-02-28T01:03:39;33.65;;;24.20;;
23222;SDS011;11780;13.904;100.620;2024-02-28T01:06:10;32.72;;;23.13;;
23222;SDS011;11780;13.904;100.620;2024-02-28T01:08:41;29.30;;;24.60;;
23222;SDS011;11780;13.904;100.620;2024-02-28T01:11:11;29.88;;;24.63;;
23222;SDS011;11780;13.904;100.620;2024-02-28T01:13:42;31.63;;;24.58;;
23222;SDS011;11780;13.904;100.620;2024-02-28T01:16:13;31.45;;;25.23;;
23222;SDS011;11780;13.904;100.620;2024-02-28T01:18:44;29.65;;;22.85;;
23222;SDS011;11780;13.904;100.620;2024-02-28T01:21:15;28.85;;;24.40;;
23222;SDS011;11780;13.904;100.620;2024-02-28T01:23:46;28.48;;;24.17;;
23222;SDS011;11780;13.904;100.620;2024-02-28T01:26:16;30.07;;;23.50;;
23222;SDS011;11780;13.904;100.620;2024-02-28T01:28:49;31.20;;;23.63;;
23222;SDS011;11780;13.904;100.620;2024-02-28T01:31:20;31.88;;;23.95;;
23222;SDS011;11780;13.904;100.620;2024-02-28T01:33:51;30.23;;;23.42;;
23222;SDS011;11780;13.904;100.620;2024-02-28T01:36:22;28.80;;;23.08;;
23222;SDS011;11780;13.904;100.620;2024-02-28T01:38:53;27.75;;;22.13;;
23222;SDS011;11780;13.904;100.620;2024-02-28T01:41:23;27.95;;;22.42;;
23222;SDS011;11780;13.904;100.620;2024-02-28T01:43:54;26.17;;;21.48;;
23222;SDS011;11780;13.904;100.620;2024-02-28T01:46:26;25.02;;;21.95;;
23222;SDS011;11780;13.904;100.620;2024-02-28T01:48:58;24.85;;;21.55;;
23222;SDS011;11780;13.904;100.620;2024-02-28T01:51:29;28.45;;;21.35;;
23222;SDS011;11780;13.904;100.620;2024-02-28T01:54:00;27.53;;;20.57;;
23222;SDS011;11780;13.904;100.620;2024-02-28T01:56:30;24.87;;;20.67;;
23222;SDS011;11780;13.904;100.620;2024-02-28T01:59:02;23.88;;;20.70;;
23222;SDS011;11780;13.904;100.620;2024-02-28T02:01:34;23.08;;;20.58;;
23222;SDS011;11780;13.904;100.620;2024-02-28T02:04:07;26.00;;;21.08;;
23222;SDS011;11780;13.904;100.620;2024-02-28T02:06:37;23.33;;;19.90;;
23222;SDS011;11780;13.904;100.620;2024-02-28T02:09:12;24.50;;;19.95;;
23222;SDS011;11780;13.904;100.620;2024-02-28T02:11:43;22.05;;;19.55;;
23222;SDS011;11780;13.904;100.620;2024-02-28T02:14:13;21.77;;;19.50;;
23222;SDS011;11780;13.904;100.620;2024-02-28T02:16:44;28.17;;;19.60;;
23222;SDS011;11780;13.904;100.620;2024-02-28T02:19:16;28.58;;;20.73;;
23222;SDS011;11780;13.904;100.620;2024-02-28T02:21:51;29.17;;;20.40;;
23222;SDS011;11780;13.904;100.620;2024-02-28T02:24:24;23.77;;;18.90;;
23222;SDS011;11780;13.904;100.620;2024-02-28T02:26:58;23.70;;;18.73;;
23222;SDS011;11780;13.904;100.620;2024-02-28T02:29:29;22.33;;;18.08;;
23222;SDS011;11780;13.904;100.620;2024-02-28T02:31:59;24.27;;;19.10;;
23222;SDS011;11780;13.904;100.620;2024-02-28T02:34:30;25.08;;;19.20;;
23222;SDS011;11780;13.904;100.620;2024-02-28T02:37:01;21.42;;;18.88;;
23222;SDS011;11780;13.904;100.620;2024-02-28T02:39:32;22.77;;;19.20;;
23222;SDS011;11780;13.904;100.620;2024-02-28T02:42:04;20.85;;;18.75;;
23222;SDS011;11780;13.904;100.620;2024-02-28T02:44:35;25.15;;;19.15;;
23222;SDS011;11780;13.904;100.620;2024-02-28T02:47:05;22.48;;;19.17;;
23222;SDS011;11780;13.904;100.620;2024-02-28T02:49:36;24.10;;;19.63;;
23222;SDS011;11780;13.904;100.620;2024-02-28T02:52:07;21.08;;;18.92;;
23222;SDS011;11780;13.904;100.620;2024-02-28T02:54:37;23.77;;;18.97;;
23222;SDS011;11780;13.904;100.620;2024-02-28T02:57:08;24.33;;;20.48;;
23222;SDS011;11780;13.904;100.620;2024-02-28T02:59:39;21.42;;;19.15;;
23222;SDS011;11780;13.904;100.620;2024-02-28T03:02:10;24.13;;;19.67;;
23222;SDS011;11780;13.904;100.620;2024-02-28T03:04:40;23.27;;;19.77;;
23222;SDS011;11780;13.904;100.620;2024-02-28T03:07:11;26.80;;;21.60;;
23222;SDS011;11780;13.904;100.620;2024-02-28T03:09:42;24.08;;;21.60;;
23222;SDS011;11780;13.904;100.620;2024-02-28T03:12:12;26.00;;;21.00;;
23222;SDS011;11780;13.904;100.620;2024-02-28T03:14:43;23.02;;;20.63;;
23222;SDS011;11780;13.904;100.620;2024-02-28T03:17:14;22.77;;;20.30;;
23222;SDS011;11780;13.904;100.620;2024-02-28T03:19:47;24.00;;;20.83;;
23222;SDS011;11780;13.904;100.620;2024-02-28T03:22:19;26.33;;;21.67;;
23222;SDS011;11780;13.904;100.620;2024-02-28T03:24:50;24.85;;;22.35;;
23222;SDS011;11780;13.904;100.620;2024-02-28T03:27:21;24.00;;;21.38;;
23222;SDS011;11780;13.904;100.620;2024-02-28T03:29:52;25.13;;;21.80;;
23222;SDS011;11780;13.904;100.620;2024-02-28T03:32:23;24.65;;;21.92;;
23222;SDS011;11780;13.904;100.620;2024-02-28T03:34:54;23.17;;;20.80;;
23222;SDS011;11780;13.904;100.620;2024-02-28T03:37:25;28.35;;;21.23;;
23222;SDS011;11780;13.904;100.620;2024-02-28T03:39:56;23.23;;;20.15;;
23222;SDS011;11780;13.904;100.620;2024-02-28T03:42:27;22.45;;;20.45;;
23222;SDS011;11780;13.904;100.620;2024-02-28T03:44:57;24.25;;;21.42;;
23222;SDS011;11780;13.904;100.620;2024-02-28T03:47:28;25.10;;;22.50;;
23222;SDS011;11780;13.904;100.620;2024-02-28T03:49:59;24.65;;;22.13;;
23222;SDS011;11780;13.904;100.620;2024-02-28T03:52:32;25.40;;;22.95;;
23222;SDS011;11780;13.904;100.620;2024-02-28T03:55:04;24.95;;;22.25;;
23222;SDS011;11780;13.904;100.620;2024-02-28T03:57:35;23.95;;;21.52;;
23222;SDS011;11780;13.904;100.620;2024-02-28T04:00:05;23.67;;;21.27;;
23222;SDS011;11780;13.904;100.620;2024-02-28T04:02:38;23.35;;;20.90;;
23222;SDS011;11780;13.904;100.620;2024-02-28T04:05:09;23.50;;;20.42;;
23222;SDS011;11780;13.904;100.620;2024-02-28T04:07:40;23.42;;;21.00;;
23222;SDS011;11780;13.904;100.620;2024-02-28T04:10:10;24.35;;;21.60;;
23222;SDS011;11780;13.904;100.620;2024-02-28T04:12:42;23.02;;;20.60;;
23222;SDS011;11780;13.904;100.620;2024-02-28T04:15:14;27.92;;;21.70;;
23222;SDS011;11780;13.904;100.620;2024-02-28T04:17:45;22.90;;;20.50;;
23222;SDS011;11780;13.904;100.620;2024-02-28T04:20:16;23.48;;;20.75;;
23222;SDS011;11780;13.904;100.620;2024-02-28T04:22:46;22.00;;;19.85;;
23222;SDS011;11780;13.904;100.620;2024-02-28T04:25:17;24.33;;;21.45;;
23222;SDS011;11780;13.904;100.620;2024-02-28T04:30:19;24.33;;;21.00;;
23222;SDS011;11780;13.904;100.620;2024-02-28T04:32:50;21.20;;;19.10;;
23222;SDS011;11780;13.904;100.620;2024-02-28T04:35:21;22.15;;;19.80;;
23222;SDS011;11780;13.904;100.620;2024-02-28T04:37:52;22.17;;;19.88;;
23222;SDS011;11780;13.904;100.620;2024-02-28T04:40:22;25.10;;;20.07;;
23222;SDS011;11780;13.904;100.620;2024-02-28T04:42:53;23.30;;;20.88;;
23222;SDS011;11780;13.904;100.620;2024-02-28T04:45:24;22.65;;;20.35;;
23222;SDS011;11780;13.904;100.620;2024-02-28T04:47:54;21.52;;;19.35;;
23222;SDS011;11780;13.904;100.620;2024-02-28T04:50:27;22.85;;;20.38;;
23222;SDS011;11780;13.904;100.620;2024-02-28T04:52:57;22.13;;;20.08;;
23222;SDS011;11780;13.904;100.620;2024-02-28T04:55:28;22.92;;;20.67;;
23222;SDS011;11780;13.904;100.620;2024-02-28T04:57:59;23.13;;;20.63;;
23222;SDS011;11780;13.904;100.620;2024-02-28T05:03:00;24.02;;;21.27;;
23222;SDS011;11780;13.904;100.620;2024-02-28T05:05:32;24.98;;;22.23;;
23222;SDS011;11780;13.904;100.620;2024-02-28T05:10:34;27.90;;;22.13;;
23222;SDS011;11780;13.904;100.620;2024-02-28T05:13:04;28.83;;;23.47;;
23222;SDS011;11780;13.904;100.620;2024-02-28T05:15:35;25.50;;;22.20;;
23222;SDS011;11780;13.904;100.620;2024-02-28T05:18:06;24.58;;;21.95;;
23222;SDS011;11780;13.904;100.620;2024-02-28T05:20:37;27.17;;;23.13;;
23222;SDS011;11780;13.904;100.620;2024-02-28T05:23:08;24.58;;;22.00;;
23222;SDS011;11780;13.904;100.620;2024-02-28T05:25:38;25.38;;;22.88;;
23222;SDS011;11780;13.904;100.620;2024-02-28T05:30:40;24.45;;;22.08;;
23222;SDS011;11780;13.904;100.620;2024-02-28T05:33:16;24.80;;;20.92;;
23222;SDS011;11780;13.904;100.620;2024-02-28T05:35:47;24.50;;;21.90;;
23222;SDS011;11780;13.904;100.620;2024-02-28T05:38:18;23.50;;;21.02;;
23222;SDS011;11780;13.904;100.620;2024-02-28T05:40:49;24.05;;;21.55;;
23222;SDS011;11780;13.904;100.620;2024-02-28T05:43:20;23.17;;;20.88;;
23222;SDS011;11780;13.904;100.620;2024-02-28T05:45:50;24.27;;;21.80;;
23222;SDS011;11780;13.904;100.620;2024-02-28T05:48:21;24.52;;;21.77;;
23222;SDS011;11780;13.904;100.620;2024-02-28T05:50:52;23.75;;;21.25;;
23222;SDS011;11780;13.904;100.620;2024-02-28T05:53:22;23.35;;;20.88;;
23222;SDS011;11780;13.904;100.620;2024-02-28T05:55:56;25.02;;;21.67;;
23222;SDS011;11780;13.904;100.620;2024-02-28T05:58:27;24.25;;;21.38;;
23222;SDS011;11780;13.904;100.620;2024-02-28T06:03:28;25.00;;;21.10;;
23222;SDS011;11780;13.904;100.620;2024-02-28T06:05:59;24.90;;;22.20;;
23222;SDS011;11780;13.904;100.620;2024-02-28T06:08:34;27.05;;;21.80;;
23222;SDS011;11780;13.904;100.620;2024-02-28T06:11:09;25.30;;;22.40;;
23222;SDS011;11780;13.904;100.620;2024-02-28T06:13:40;25.70;;;21.98;;
23222;SDS011;11780;13.904;100.620;2024-02-28T06:16:14;24.33;;;21.92;;
23222;SDS011;11780;13.904;100.620;2024-02-28T06:18:47;24.63;;;22.30;;
23222;SDS011;11780;13.904;100.620;2024-02-28T06:21:18;25.33;;;22.63;;
23222;SDS011;11780;13.904;100.620;2024-02-28T06:23:52;25.05;;;21.73;;
23222;SDS011;11780;13.904;100.620;2024-02-28T06:26:35;24.08;;;21.40;;
23222;SDS011;11780;13.904;100.620;2024-02-28T06:29:24;24.25;;;21.73;;
23222;SDS011;11780;13.904;100.620;2024-02-28T06:31:55;23.35;;;21.08;;
23222;SDS011;11780;13.904;100.620;2024-02-28T06:34:26;26.20;;;22.77;;
23222;SDS011;11780;13.904;100.620;2024-02-28T06:36:57;24.23;;;21.80;;
23222;SDS011;11780;13.904;100.620;2024-02-28T06:39:28;26.83;;;24.05;;
23222;SDS011;11780;13.904;100.620;2024-02-28T06:41:59;25.17;;;22.45;;
23222;SDS011;11780;13.904;100.620;2024-02-28T06:44:30;27.08;;;23.40;;
23222;SDS011;11780;13.904;100.620;2024-02-28T06:47:01;25.65;;;23.13;;
23222;SDS011;11780;13.904;100.620;2024-02-28T06:49:32;23.85;;;21.58;;
23222;SDS011;11780;13.904;100.620;2024-02-28T06:52:03;24.25;;;21.90;;
23222;SDS011;11780;13.904;100.620;2024-02-28T06:54:34;24.60;;;22.20;;
23222;SDS011;11780;13.904;100.620;2024-02-28T06:57:05;24.20;;;22.00;;
23222;SDS011;11780;13.904;100.620;2024-02-28T06:59:36;24.27;;;21.98;;
23222;SDS011;11780;13.904;100.620;2024-02-28T07:02:06;24.13;;;21.95;;
23222;SDS011;11780;13.904;100.620;2024-02-28T07:07:09;24.47;;;21.97;;
23222;SDS011;11780;13.904;100.620;2024-02-28T07:09:40;23.67;;;21.27;;
23222;SDS011;11780;13.904;100.620;2024-02-28T07:12:11;24.00;;;21.77;;
23222;SDS011;11780;13.904;100.620;2024-02-28T07:17:13;23.60;;;21.30;;
23222;SDS011;11780;13.904;100.620;2024-02-28T07:19:43;23.30;;;21.17;;
23222;SDS011;11780;13.904;100.620;2024-02-28T07:22:14;23.77;;;21.50;;
23222;SDS011;11780;13.904;100.620;2024-02-28T07:24:44;23.40;;;21.10;;
23222;SDS011;11780;13.904;100.620;2024-02-28T07:27:15;23.10;;;21.08;;
23222;SDS011;11780;13.904;100.620;2024-02-28T07:29:46;22.40;;;20.40;;
23222;SDS011;11780;13.904;100.620;2024-02-28T07:32:16;25.10;;;22.60;;
23222;SDS011;11780;13.904;100.620;2024-02-28T07:34:47;24.30;;;21.67;;
23222;SDS011;11780;13.904;100.620;2024-02-28T07:37:18;22.75;;;20.45;;
23222;SDS011;11780;13.904;100.620;2024-02-28T07:39:49;23.65;;;21.30;;
23222;SDS011;11780;13.904;100.620;2024-02-28T07:42:20;23.55;;;21.23;;
23222;SDS011;11780;13.904;100.620;2024-02-28T07:44:51;21.23;;;19.13;;
23222;SDS011;11780;13.904;100.620;2024-02-28T07:47:26;22.33;;;20.23;;
23222;SDS011;11780;13.904;100.620;2024-02-28T07:49:57;23.27;;;20.80;;
23222;SDS011;11780;13.904;100.620;2024-02-28T07:52:28;23.92;;;20.98;;
23222;SDS011;11780;13.904;100.620;2024-02-28T07:54:59;22.77;;;20.42;;
23222;SDS011;11780;13.904;100.620;2024-02-28T07:57:31;22.00;;;19.65;;
23222;SDS011;11780;13.904;100.620;2024-02-28T08:00:03;21.45;;;19.33;;
23222;SDS011;11780;13.904;100.620;2024-02-28T08:02:40;22.65;;;20.38;;
23222;SDS011;11780;13.904;100.620;2024-02-28T08:05:12;21.38;;;19.25;;
23222;SDS011;11780;13.904;100.620;2024-02-28T08:07:45;21.88;;;19.55;;
23222;SDS011;11780;13.904;100.620;2024-02-28T08:10:15;21.90;;;19.58;;
23222;SDS011;11780;13.904;100.620;2024-02-28T08:12:47;21.60;;;19.58;;
23222;SDS011;11780;13.904;100.620;2024-02-28T08:15:18;19.98;;;18.08;;
23222;SDS011;11780;13.904;100.620;2024-02-28T08:17:49;22.42;;;19.02;;
23222;SDS011;11780;13.904;100.620;2024-02-28T08:20:20;21.93;;;19.90;;
23222;SDS011;11780;13.904;100.620;2024-02-28T08:22:51;21.08;;;18.92;;
23222;SDS011;11780;13.904;100.620;2024-02-28T08:25:22;21.17;;;19.15;;
23222;SDS011;11780;13.904;100.620;2024-02-28T08:27:53;23.08;;;19.55;;
23222;SDS011;11780;13.904;100.620;2024-02-28T08:30:25;22.05;;;19.85;;
23222;SDS011;11780;13.904;100.620;2024-02-28T08:32:56;21.63;;;19.50;;
23222;SDS011;11780;13.904;100.620;2024-02-28T08:35:27;21.38;;;19.33;;
23222;SDS011;11780;13.904;100.620;2024-02-28T08:40:29;19.77;;;17.98;;
23222;SDS011;11780;13.904;100.620;2024-02-28T08:43:00;20.98;;;18.90;;
23222;SDS011;11780;13.904;100.620;2024-02-28T08:45:30;19.67;;;17.73;;
23222;SDS011;11780;13.904;100.620;2024-02-28T08:48:05;19.88;;;18.02;;
23222;SDS011;11780;13.904;100.620;2024-02-28T08:50:37;20.02;;;17.92;;
23222;SDS011;11780;13.904;100.620;2024-02-28T08:53:07;20.23;;;18.27;;
23222;SDS011;11780;13.904;100.620;2024-02-28T08:55:38;19.58;;;17.75;;
23222;SDS011;11780;13.904;100.620;2024-02-28T08:58:09;19.63;;;17.65;;
23222;SDS011;11780;13.904;100.620;2024-02-28T09:00:40;20.85;;;18.73;;
23222;SDS011;11780;13.904;100.620;2024-02-28T09:03:11;19.25;;;17.52;;
23222;SDS011;11780;13.904;100.620;2024-02-28T09:05:42;19.67;;;17.88;;
23222;SDS011;11780;13.904;100.620;2024-02-28T09:08:12;19.43;;;17.40;;
23222;SDS011;11780;13.904;100.620;2024-02-28T09:10:43;18.05;;;16.40;;
23222;SDS011;11780;13.904;100.620;2024-02-28T09:13:14;19.15;;;17.42;;
23222;SDS011;11780;13.904;100.620;2024-02-28T09:15:45;20.02;;;18.10;;
23222;SDS011;11780;13.904;100.620;2024-02-28T09:18:19;19.63;;;17.77;;
23222;SDS011;11780;13.904;100.620;2024-02-28T09:20:50;18.40;;;16.85;;
23222;SDS011;11780;13.904;100.620;2024-02-28T09:23:21;20.17;;;18.08;;
23222;SDS011;11780;13.904;100.620;2024-02-28T09:25:52;18.73;;;17.13;;
23222;SDS011;11780;13.904;100.620;2024-02-28T09:28:22;19.13;;;17.25;;
23222;SDS011;11780;13.904;100.620;2024-02-28T09:30:54;19.02;;;17.23;;
23222;SDS011;11780;13.904;100.620;2024-02-28T09:33:25;18.90;;;17.20;;
23222;SDS011;11780;13.904;100.620;2024-02-28T09:35:56;19.27;;;17.40;;
23222;SDS011;11780;13.904;100.620;2024-02-28T09:38:27;18.57;;;16.87;;
23222;SDS011;11780;13.904;100.620;2024-02-28T09:41:01;19.70;;;17.85;;
23222;SDS011;11780;13.904;100.620;2024-02-28T09:43:33;20.85;;;18.65;;
23222;SDS011;11780;13.904;100.620;2024-02-28T09:46:10;19.88;;;18.17;;
23222;SDS011;11780;13.904;100.620;2024-02-28T09:48:43;23.10;;;17.85;;
23222;SDS011;11780;13.904;100.620;2024-02-28T09:51:19;21.38;;;18.67;;
23222;SDS011;11780;13.904;100.620;2024-02-28T09:53:54;20.70;;;18.65;;
23222;SDS011;11780;13.904;100.620;2024-02-28T09:56:28;20.98;;;18.20;;
23222;SDS011;11780;13.904;100.620;2024-02-28T09:59:01;20.77;;;17.92;;
23222;SDS011;11780;13.904;100.620;2024-02-28T10:01:37;21.30;;;18.95;;
23222;SDS011;11780;13.904;100.620;2024-02-28T10:04:20;23.00;;;19.20;;
23222;SDS011;11780;13.904;100.620;2024-02-28T10:06:53;20.45;;;18.02;;
23222;SDS011;11780;13.904;100.620;2024-02-28T10:11:54;20.63;;;17.88;;
23222;SDS011;11780;13.904;100.620;2024-02-28T10:14:25;20.23;;;18.30;;
23222;SDS011;11780;13.904;100.620;2024-02-28T10:16:56;20.38;;;18.23;;
23222;SDS011;11780;13.904;100.620;2024-02-28T10:19:28;20.73;;;18.33;;
23222;SDS011;11780;13.904;100.620;2024-02-28T10:21:59;20.13;;;18.08;;
23222;SDS011;11780;13.904;100.620;2024-02-28T10:24:32;19.80;;;17.25;;
23222;SDS011;11780;13.904;100.620;2024-02-28T10:27:04;19.88;;;17.05;;
23222;SDS011;11780;13.904;100.620;2024-02-28T10:29:35;18.77;;;16.83;;
23222;SDS011;11780;13.904;100.620;2024-02-28T10:32:06;20.13;;;17.08;;
23222;SDS011;11780;13.904;100.620;2024-02-28T10:34:36;18.00;;;15.83;;
23222;SDS011;11780;13.904;100.620;2024-02-28T10:37:07;18.60;;;16.20;;
23222;SDS011;11780;13.904;100.620;2024-02-28T10:39:40;22.38;;;16.20;;
23222;SDS011;11780;13.904;100.620;2024-02-28T10:42:13;20.38;;;15.48;;
23222;SDS011;11780;13.904;100.620;2024-02-28T10:44:47;16.95;;;15.23;;
23222;SDS011;11780;13.904;100.620;2024-02-28T10:47:43;19.85;;;15.00;;
23222;SDS011;11780;13.904;100.620;2024-02-28T10:52:46;18.40;;;16.02;;
23222;SDS011;11780;13.904;100.620;2024-02-28T10:55:24;17.65;;;14.63;;
23222;SDS011;11780;13.904;100.620;2024-02-28T11:00:32;18.45;;;15.55;;
23222;SDS011;11780;13.904;100.620;2024-02-28T11:03:05;17.55;;;15.77;;
23222;SDS011;11780;13.904;100.620;2024-02-28T11:08:11;20.17;;;16.65;;
23222;SDS011;11780;13.904;100.620;2024-02-28T11:10:43;19.98;;;16.27;;
23222;SDS011;11780;13.904;100.620;2024-02-28T11:13:26;19.35;;;17.10;;
23222;SDS011;11780;13.904;100.620;2024-02-28T11:16:06;19.63;;;17.52;;
23222;SDS011;11780;13.904;100.620;2024-02-28T11:18:47;19.00;;;17.10;;
23222;SDS011;11780;13.904;100.620;2024-02-28T11:21:19;19.63;;;17.55;;
23222;SDS011;11780;13.904;100.620;2024-02-28T11:23:59;19.77;;;17.67;;
23222;SDS011;11780;13.904;100.620;2024-02-28T11:26:31;26.02;;;17.92;;
23222;SDS011;11780;13.904;100.620;2024-02-28T11:29:02;20.67;;;17.90;;
23222;SDS011;11780;13.904;100.620;2024-02-28T11:31:33;19.38;;;17.38;;
23222;SDS011;11780;13.904;100.620;2024-02-28T11:34:04;23.50;;;18.70;;
23222;SDS011;11780;13.904;100.620;2024-02-28T11:36:35;32.50;;;25.42;;
23222;SDS011;11780;13.904;100.620;2024-02-28T11:41:36;37.05;;;23.95;;
23222;SDS011;11780;13.904;100.620;2024-02-28T11:44:09;48.13;;;26.50;;
23222;SDS011;11780;13.904;100.620;2024-02-28T11:46:48;41.13;;;25.80;;
23222;SDS011;11780;13.904;100.620;2024-02-28T11:49:19;34.90;;;22.85;;
23222;SDS011;11780;13.904;100.620;2024-02-28T11:54:20;27.77;;;20.77;;
23222;SDS011;11780;13.904;100.620;2024-02-28T11:56:51;27.90;;;20.08;;
23222;SDS011;11780;13.904;100.620;2024-02-28T11:59:25;26.88;;;19.83;;
23222;SDS011;11780;13.904;100.620;2024-02-28T12:01:57;25.52;;;19.08;;
23222;SDS011;11780;13.904;100.620;2024-02-28T12:04:27;23.45;;;18.70;;
23222;SDS011;11780;13.904;100.620;2024-02-28T12:06:58;20.25;;;17.65;;
23222;SDS011;11780;13.904;100.620;2024-02-28T12:09:29;22.15;;;17.92;;
23222;SDS011;11780;13.904;100.620;2024-02-28T12:12:08;19.40;;;17.33;;
23222;SDS011;11780;13.904;100.620;2024-02-28T12:14:39;20.13;;;17.27;;
23222;SDS011;11780;13.904;100.620;2024-02-28T12:17:13;20.55;;;17.08;;
23222;SDS011;11780;13.904;100.620;2024-02-28T12:19:45;22.27;;;16.90;;
23222;SDS011;11780;13.904;100.620;2024-02-28T12:22:19;21.30;;;16.98;;
23222;SDS011;11780;13.904;100.620;2024-02-28T12:24:51;19.67;;;15.82;;
23222;SDS011;11780;13.904;100.620;2024-02-28T12:29:52;20.90;;;16.50;;
23222;SDS011;11780;13.904;100.620;2024-02-28T12:32:23;21.33;;;16.63;;
23222;SDS011;11780;13.904;100.620;2024-02-28T12:37:24;19.50;;;14.98;;
23222;SDS011;11780;13.904;100.620;2024-02-28T12:39:55;19.63;;;14.70;;
23222;SDS011;11780;13.904;100.620;2024-02-28T12:42:27;16.38;;;13.90;;
23222;SDS011;11780;13.904;100.620;2024-02-28T12:44:59;15.75;;;13.77;;
23222;SDS011;11780;13.904;100.620;2024-02-28T12:47:30;15.23;;;13.10;;
23222;SDS011;11780;13.904;100.620;2024-02-28T12:50:02;16.45;;;13.68;;
23222;SDS011;11780;13.904;100.620;2024-02-28T12:52:33;15.93;;;13.13;;
23222;SDS011;11780;13.904;100.620;2024-02-28T12:55:04;18.42;;;13.68;;
23222;SDS011;11780;13.904;100.620;2024-02-28T12:57:35;17.38;;;13.05;;
23222;SDS011;11780;13.904;100.620;2024-02-28T13:01:06;16.98;;;13.48;;
23222;SDS011;11780;13.904;100.620;2024-02-28T13:03:40;18.83;;;12.68;;
23222;SDS011;11780;13.904;100.620;2024-02-28T13:06:11;17.00;;;13.82;;
23222;SDS011;11780;13.904;100.620;2024-02-28T13:08:44;16.17;;;13.02;;
23222;SDS011;11780;13.904;100.620;2024-02-28T13:13:46;17.55;;;13.95;;
23222;SDS011;11780;13.904;100.620;2024-02-28T13:16:21;16.67;;;13.45;;
23222;SDS011;11780;13.904;100.620;2024-02-28T13:18:53;20.30;;;13.95;;
23222;SDS011;11780;13.904;100.620;2024-02-28T13:23:55;22.75;;;16.63;;
23222;SDS011;11780;13.904;100.620;2024-02-28T13:26:28;26.73;;;18.92;;
23222;SDS011;11780;13.904;100.620;2024-02-28T13:28:59;34.70;;;20.33;;
23222;SDS011;11780;13.904;100.620;2024-02-28T13:31:32;34.45;;;20.08;;
23222;SDS011;11780;13.904;100.620;2024-02-28T13:34:03;31.20;;;18.92;;
23222;SDS011;11780;13.904;100.620;2024-02-28T13:36:35;19.52;;;14.68;;
23222;SDS011;11780;13.904;100.620;2024-02-28T13:39:12;21.83;;;14.82;;
23222;SDS011;11780;13.904;100.620;2024-02-28T13:41:45;20.27;;;13.88;;
23222;SDS011;11780;13.904;100.620;2024-02-28T13:44:20;19.45;;;14.32;;
23222;SDS011;11780;13.904;100.620;2024-02-28T13:46:51;17.03;;;13.33;;
23222;SDS011;11780;13.904;100.620;2024-02-28T13:49:25;19.85;;;13.60;;
23222;SDS011;11780;13.904;100.620;2024-02-28T13:51:57;16.05;;;13.70;;
23222;SDS011;11780;13.904;100.620;2024-02-28T13:54:32;20.13;;;13.98;;
23222;SDS011;11780;13.904;100.620;2024-02-28T13:57:04;17.20;;;13.02;;
23222;SDS011;11780;13.904;100.620;2024-02-28T13:59:41;17.38;;;13.48;;
23222;SDS011;11780;13.904;100.620;2024-02-28T14:02:14;19.05;;;13.52;;
23222;SDS011;11780;13.904;100.620;2024-02-28T14:04:46;18.58;;;13.45;;
23222;SDS011;11780;13.904;100.620;2024-02-28T14:07:19;19.25;;;14.63;;
23222;SDS011;11780;13.904;100.620;2024-02-28T14:09:50;17.40;;;13.10;;
23222;SDS011;11780;13.904;100.620;2024-02-28T14:12:22;16.65;;;13.50;;
23222;SDS011;11780;13.904;100.620;2024-02-28T14:17:24;17.97;;;14.00;;
23222;SDS011;11780;13.904;100.620;2024-02-28T14:19:55;17.02;;;14.48;;
23222;SDS011;11780;13.904;100.620;2024-02-28T14:24:57;19.58;;;15.00;;
23222;SDS011;11780;13.904;100.620;2024-02-28T14:27:30;21.10;;;15.38;;
23222;SDS011;11780;13.904;100.620;2024-02-28T14:30:03;18.85;;;15.02;;
23222;SDS011;11780;13.904;100.620;2024-02-28T14:32:38;18.00;;;14.52;;
23222;SDS011;11780;13.904;100.620;2024-02-28T14:35:10;20.10;;;15.25;;
23222;SDS011;11780;13.904;100.620;2024-02-28T14:40:13;19.83;;;15.30;;
23222;SDS011;11780;13.904;100.620;2024-02-28T14:42:44;20.08;;;15.18;;
23222;SDS011;11780;13.904;100.620;2024-02-28T14:45:16;17.75;;;15.43;;
23222;SDS011;11780;13.904;100.620;2024-02-28T14:47:47;19.90;;;15.27;;
23222;SDS011;11780;13.904;100.620;2024-02-28T14:50:18;17.75;;;15.80;;
23222;SDS011;11780;13.904;100.620;2024-02-28T14:52:50;18.67;;;15.38;;
23222;SDS011;11780;13.904;100.620;2024-02-28T14:55:24;19.13;;;15.25;;
23222;SDS011;11780;13.904;100.620;2024-02-28T14:57:55;20.33;;;16.10;;
23222;SDS011;11780;13.904;100.620;2024-02-28T15:00:29;17.98;;;15.98;;
23222;SDS011;11780;13.904;100.620;2024-02-28T15:03:00;18.85;;;15.90;;
23222;SDS011;11780;13.904;100.620;2024-02-28T15:08:02;20.75;;;16.25;;
23222;SDS011;11780;13.904;100.620;2024-02-28T15:10:33;18.90;;;16.17;;
23222;SDS011;11780;13.904;100.620;2024-02-28T15:13:03;21.93;;;17.17;;
23222;SDS011;11780;13.904;100.620;2024-02-28T15:15:36;17.77;;;16.17;;
23222;SDS011;11780;13.904;100.620;2024-02-28T15:18:09;18.50;;;16.23;;
23222;SDS011;11780;13.904;100.620;2024-02-28T15:20:40;22.83;;;18.23;;
23222;SDS011;11780;13.904;100.620;2024-02-28T15:23:11;19.33;;;17.02;;